Time;durP1;ratioP1;P1;durP2;ratioP2;P2;SDS_P1;SDS_P2;PMS_P1;PMS_P2;Temp;Humidity;BMP_temperature;BMP_pressure;BME280_temperature;BME280_humidity;BME280_pressure;Samples;Min_cycle;Max_cycle;Signal;HPM_P1;HPM_P2
2021/10/02 00:36:28;;;;;;;14.20;2.03;;;;;;;5.60;100.00;98771.00;4982195;28;20408;-68
2021/10/02 00:41:19;;;;;;;;;;;;;;;5.59;100.00;98782.75;4985836;28;20050;-68
2021/10/02 00:46:30;;;;;;;19.20;2.60;;;;;;;5.48;100.00;98764.88;4988050;28;20025;-68
2021/10/02 00:48:57;;;;;;;21.13;2.70;;;;;;;5.38;100.00;98754.75;4989815;28;20044;-67
2021/10/02 00:51:23;;;;;;;20.25;2.80;;;;;;;5.36;100.00;98756.84;4985245;28;20033;-68
2021/10/02 00:53:49;;;;;;;18.25;3.45;;;;;;;5.34;100.00;98753.59;4989969;28;20042;-68
2021/10/02 00:56:16;;;;;;;19.38;3.05;;;;;;;5.36;100.00;98754.16;4984755;28;20042;-68
2021/10/02 00:58:46;;;;;;;15.15;2.75;;;;;;;5.32;100.00;98748.50;4990162;28;20031;-67
2021/10/02 01:01:19;;;;;;;23.55;3.20;;;;;;;5.28;100.00;98747.31;4984740;28;20476;-68
2021/10/02 01:04:07;;;;;;;18.27;2.53;;;;;;;5.30;100.00;98745.25;4963905;28;20034;-67
2021/10/02 01:06:45;;;;;;;21.45;3.15;;;;;;;5.34;100.00;98734.91;4986100;28;20050;-67
2021/10/02 01:09:19;;;;;;;23.45;2.90;;;;;;;5.32;100.00;98735.16;4971031;28;20045;-67
2021/10/02 01:12:03;;;;;;;16.13;2.95;;;;;;;5.31;100.00;98733.53;4985952;28;20030;-68
2021/10/02 01:14:43;;;;;;;31.85;3.90;;;;;;;5.36;100.00;98733.63;4982955;28;20081;-68
2021/10/02 01:17:28;;;;;;;20.95;2.67;;;;;;;5.36;100.00;98732.81;4983797;28;20038;-68
2021/10/02 01:20:18;;;;;;;24.55;3.10;;;;;;;5.34;100.00;98741.06;4981395;28;20621;-67
2021/10/02 01:23:25;;;;;;;22.77;3.35;;;;;;;5.37;100.00;98729.91;4989902;28;20038;-68
2021/10/02 01:26:19;;;;;;;21.33;3.15;;;;;;;5.38;100.00;98720.88;4981978;28;20042;-67
2021/10/02 01:28:47;;;;;;;23.33;2.93;;;;;;;5.37;100.00;98710.41;4987902;28;20031;-67
2021/10/02 01:31:51;;;;;;;25.58;2.80;;;;;;;5.35;100.00;98710.66;4974273;28;20038;-67
2021/10/02 01:34:16;;;;;;;29.75;2.63;;;;;;;5.27;100.00;98706.47;4990318;28;20046;-67
2021/10/02 01:37:01;;;;;;;21.30;2.97;;;;;;;5.24;100.00;98706.94;4986046;28;20141;-67
2021/10/02 01:47:52;;;;;;;21.15;2.63;;;;;;;5.05;100.00;98689.41;4978156;28;20035;-67
2021/10/02 01:50:24;;;;;;;26.10;3.30;;;;;;;4.95;100.00;98690.81;4990177;28;20154;-67
2021/10/02 01:52:51;;;;;;;20.20;3.30;;;;;;;4.86;100.00;98691.38;4971762;28;20037;-67
2021/10/02 01:55:19;;;;;;;19.27;2.28;;;;;;;4.77;100.00;98690.91;4991576;28;20022;-67
2021/10/02 01:57:52;;;;;;;18.27;2.80;;;;;;;4.74;100.00;98696.69;4981066;28;20038;-67
2021/10/02 02:00:18;;;;;;;26.83;3.47;;;;;;;4.76;100.00;98692.75;4965451;28;21890;-67
2021/10/02 02:02:48;;;;;;;44.60;3.63;;;;;;;4.78;100.00;98688.00;4983626;28;20129;-67
2021/10/02 02:05:26;;;;;;;26.65;3.25;;;;;;;4.79;100.00;98678.94;4989980;28;20023;-67
2021/10/02 02:07:55;;;;;;;24.50;2.50;;;;;;;4.77;100.00;98675.69;4992634;28;20041;-67
2021/10/02 02:10:23;;;;;;;18.75;2.53;;;;;;;4.86;100.00;98664.69;4989621;28;20085;-68
2021/10/02 02:12:52;;;;;;;23.40;2.88;;;;;;;4.88;100.00;98670.59;4967081;28;20081;-67
2021/10/02 02:15:19;;;;;;;24.00;2.70;;;;;;;4.89;100.00;98664.22;4972484;28;20053;-67
2021/10/02 02:17:50;;;;;;;26.85;3.78;;;;;;;4.93;100.00;98665.38;4964736;28;20467;-67
2021/10/02 02:20:22;;;;;;;16.77;2.83;;;;;;;4.93;100.00;98663.53;4969785;28;20456;-67
2021/10/02 02:22:49;;;;;;;26.70;3.47;;;;;;;4.94;100.00;98656.31;4971719;28;20408;-67
2021/10/02 02:25:14;;;;;;;20.05;2.97;;;;;;;4.96;100.00;98655.06;4962408;28;20532;-67
2021/10/02 02:27:40;;;;;;;24.65;3.35;;;;;;;4.95;100.00;98656.13;4973350;28;20074;-67
2021/10/02 02:30:06;;;;;;;22.00;3.28;;;;;;;4.92;100.00;98643.22;4967060;28;20038;-67
2021/10/02 02:32:33;;;;;;;16.02;3.08;;;;;;;4.92;100.00;98647.75;4969869;28;20031;-68
2021/10/02 02:34:59;;;;;;;37.90;4.35;;;;;;;4.86;100.00;98636.16;4968417;28;20035;-67
2021/10/02 02:37:25;;;;;;;28.77;3.60;;;;;;;4.84;100.00;98631.03;4964165;28;20035;-68
2021/10/02 02:39:50;;;;;;;24.92;3.92;;;;;;;4.92;100.00;98626.41;4968179;28;20126;-67
2021/10/02 02:42:17;;;;;;;25.27;3.63;;;;;;;4.96;100.00;98611.53;4969830;28;20488;-67
2021/10/02 02:44:43;;;;;;;27.95;3.83;;;;;;;5.02;100.00;98615.16;4965862;28;20690;-67
2021/10/02 02:47:14;;;;;;;31.30;4.47;;;;;;;5.07;100.00;98613.38;4970506;28;20045;-67
2021/10/02 02:49:48;;;;;;;35.25;5.60;;;;;;;5.06;100.00;98608.31;4963618;28;20518;-68
2021/10/02 02:52:20;;;;;;;24.42;4.78;;;;;;;5.07;100.00;98608.06;4967510;28;20035;-68
2021/10/02 02:55:03;;;;;;;36.17;4.43;;;;;;;5.10;100.00;98607.59;4959019;28;20089;-68
2021/10/02 02:57:38;;;;;;;20.35;3.65;;;;;;;5.16;100.00;98605.84;4974899;28;20094;-67
2021/10/02 03:00:13;;;;;;;25.45;4.43;;;;;;;5.19;100.00;98600.03;4955755;28;20450;-68
2021/10/02 03:02:52;;;;;;;32.90;4.43;;;;;;;5.25;100.00;98584.91;4963872;28;20089;-68
2021/10/02 03:05:20;;;;;;;33.20;3.90;;;;;;;5.31;100.00;98581.34;4965697;28;20039;-68
2021/10/02 03:08:11;;;;;;;29.55;3.88;;;;;;;5.28;100.00;98577.25;4970767;28;20045;-67
2021/10/02 03:10:39;;;;;;;27.10;4.10;;;;;;;5.26;100.00;98589.22;4959613;28;20121;-67
2021/10/02 03:13:09;;;;;;;31.45;3.65;;;;;;;5.28;100.00;98589.78;4957773;28;20062;-67
2021/10/02 03:15:36;;;;;;;23.30;3.85;;;;;;;5.23;100.00;98585.16;5001267;28;20080;-67
2021/10/02 03:18:03;;;;;;;37.05;4.20;;;;;;;5.22;100.00;98572.03;4983071;28;20041;-67
2021/10/02 03:20:29;;;;;;;28.73;4.00;;;;;;;5.18;100.00;98574.38;4986888;28;20031;-67
2021/10/02 03:22:56;;;;;;;23.58;4.03;;;;;;;5.20;100.00;98572.28;4990748;28;20030;-68
2021/10/02 03:25:29;;;;;;;31.60;3.78;;;;;;;5.26;100.00;98554.50;4991904;28;20034;-67
2021/10/02 03:27:58;;;;;;;23.40;3.53;;;;;;;5.24;100.00;98549.41;4979789;28;20519;-67
2021/10/02 03:30:26;;;;;;;24.70;3.45;;;;;;;5.26;100.00;98544.66;4983654;28;20046;-67
2021/10/02 03:32:52;;;;;;;30.13;3.80;;;;;;;5.30;100.00;98544.19;4978344;28;20536;-67
2021/10/02 03:35:18;;;;;;;34.80;4.30;;;;;;;5.28;100.00;98534.56;4982919;28;20087;-67
2021/10/02 03:37:45;;;;;;;23.35;3.15;;;;;;;5.24;100.00;98541.41;4975114;28;20038;-67
2021/10/02 03:40:10;;;;;;;27.83;5.15;;;;;;;5.26;100.00;98533.97;4984167;28;20034;-67
2021/10/02 03:42:49;;;;;;;29.02;3.42;;;;;;;5.26;100.00;98530.47;4986208;28;20046;-67
2021/10/02 03:45:16;;;;;;;25.80;3.60;;;;;;;5.30;100.00;98525.50;4988249;28;20041;-67
2021/10/02 03:47:43;;;;;;;30.27;3.38;;;;;;;5.33;100.00;98522.34;4986075;28;20476;-67
2021/10/02 03:50:10;;;;;;;27.60;4.20;;;;;;;5.32;100.00;98532.22;4979360;28;20089;-67
2021/10/02 03:52:35;;;;;;;29.45;4.30;;;;;;;5.32;100.00;98526.88;4987537;28;20045;-67
2021/10/02 03:55:03;;;;;;;27.20;3.78;;;;;;;5.36;100.00;98530.69;4987506;28;20153;-67
2021/10/02 03:57:28;;;;;;;22.75;3.88;;;;;;;5.42;100.00;98524.41;4985877;28;20031;-67
2021/10/02 03:59:54;;;;;;;29.50;3.88;;;;;;;5.51;100.00;98519.47;4979855;28;20380;-68
2021/10/02 04:02:20;;;;;;;29.17;3.80;;;;;;;5.50;100.00;98506.38;4981416;28;20442;-67
2021/10/02 04:04:46;;;;;;;16.90;3.78;;;;;;;5.53;100.00;98498.69;4988321;28;20542;-68
2021/10/02 04:07:11;;;;;;;27.15;3.83;;;;;;;5.57;100.00;98494.47;4969581;28;20039;-68
2021/10/02 04:09:37;;;;;;;30.25;4.30;;;;;;;5.64;100.00;98490.84;4976796;28;20507;-68
2021/10/02 04:12:03;;;;;;;26.20;3.42;;;;;;;5.66;100.00;98491.41;4979788;28;20445;-69
2021/10/02 04:14:29;;;;;;;21.40;3.88;;;;;;;5.74;100.00;98485.69;4965508;28;20043;-69
2021/10/02 04:16:57;;;;;;;26.90;3.70;;;;;;;5.79;100.00;98474.28;4993190;28;20057;-68
2021/10/02 04:19:22;;;;;;;20.80;4.20;;;;;;;5.79;100.00;98467.06;4987775;28;20042;-69
2021/10/02 04:21:48;;;;;;;31.02;3.55;;;;;;;5.81;100.00;98464.16;4989343;28;20042;-67
2021/10/02 04:24:14;;;;;;;21.90;3.45;;;;;;;5.89;100.00;98476.28;4961243;28;20030;-67
2021/10/02 04:26:39;;;;;;;18.88;3.35;;;;;;;5.95;100.00;98481.47;4991006;28;20030;-67
2021/10/02 04:29:05;;;;;;;29.95;3.80;;;;;;;6.00;100.00;98464.69;4988930;28;20031;-67
2021/10/02 04:31:30;;;;;;;23.60;3.78;;;;;;;6.09;100.00;98465.94;4979886;28;20030;-67
2021/10/02 04:33:56;;;;;;;28.20;3.40;;;;;;;6.16;99.98;98452.41;4989552;28;20125;-67
2021/10/02 04:36:22;;;;;;;31.00;3.67;;;;;;;6.25;99.70;98460.84;4978156;28;20116;-67
2021/10/02 04:38:47;;;;;;;29.77;3.42;;;;;;;6.35;99.33;98457.50;4987344;28;20054;-67
2021/10/02 04:41:14;;;;;;;22.25;4.07;;;;;;;6.45;98.96;98444.25;4979120;28;20062;-67
2021/10/02 04:43:44;;;;;;;22.30;3.30;;;;;;;6.47;98.45;98452.84;4988569;28;20484;-67
2021/10/02 04:46:11;;;;;;;31.05;4.03;;;;;;;6.47;99.03;98447.50;4985155;28;20031;-67
2021/10/02 04:48:38;;;;;;;20.27;3.42;;;;;;;6.46;98.90;98445.09;4988381;28;20125;-67
2021/10/02 04:51:04;;;;;;;29.50;3.95;;;;;;;6.42;99.40;98440.22;4979853;28;20050;-68
2021/10/02 04:53:31;;;;;;;21.73;3.72;;;;;;;6.44;99.41;98431.94;4986535;28;20599;-67
2021/10/02 04:56:00;;;;;;;27.02;4.13;;;;;;;6.43;99.62;98431.16;4986492;28;20077;-67
2021/10/02 04:58:28;;;;;;;18.52;3.13;;;;;;;6.42;99.85;98424.19;4975782;28;20038;-67
2021/10/02 05:00:55;;;;;;;19.38;3.70;;;;;;;6.43;99.89;98415.09;4993092;28;20042;-67
2021/10/02 05:03:20;;;;;;;31.45;3.90;;;;;;;6.39;100.00;98410.47;4990006;28;20038;-67
2021/10/02 05:05:46;;;;;;;23.73;3.28;;;;;;;6.37;100.00;98397.38;4992747;28;20039;-68
2021/10/02 05:08:11;;;;;;;23.95;3.60;;;;;;;6.35;100.00;98396.81;4989607;28;20058;-68
2021/10/02 05:10:37;;;;;;;19.73;3.75;;;;;;;6.34;100.00;98391.69;4985790;28;20074;-67
2021/10/02 05:13:02;;;;;;;23.20;3.70;;;;;;;6.34;100.00;98375.66;4989208;28;20451;-67
2021/10/02 05:15:28;;;;;;;26.48;3.33;;;;;;;6.35;100.00;98372.75;4978624;28;20047;-67
2021/10/02 05:17:53;;;;;;;26.13;3.70;;;;;;;6.34;100.00;98359.59;4985990;28;20039;-67
2021/10/02 05:20:19;;;;;;;29.67;3.60;;;;;;;6.36;100.00;98360.16;4984262;28;20033;-67
2021/10/02 05:22:44;;;;;;;26.27;4.00;;;;;;;6.35;100.00;98359.38;4982000;28;20042;-67
2021/10/02 05:25:10;;;;;;;27.05;3.67;;;;;;;6.37;100.00;98362.59;4993412;28;20061;-67
2021/10/02 05:27:36;;;;;;;17.48;3.60;;;;;;;6.39;100.00;98360.50;4986500;28;20034;-67
2021/10/02 05:30:03;;;;;;;25.67;3.95;;;;;;;6.37;100.00;98356.44;4984599;28;20337;-67
2021/10/02 05:32:28;;;;;;;18.75;3.95;;;;;;;6.35;100.00;98358.53;4991320;28;20127;-67
2021/10/02 05:34:54;;;;;;;22.40;4.25;;;;;;;6.36;100.00;98352.97;4986445;28;20476;-67
2021/10/02 05:37:20;;;;;;;28.58;3.33;;;;;;;6.35;100.00;98359.38;4977819;28;20432;-67
2021/10/02 05:39:47;;;;;;;29.77;4.20;;;;;;;6.35;100.00;98359.38;4990746;28;21025;-67
2021/10/02 05:42:13;;;;;;;18.95;2.92;;;;;;;6.38;100.00;98361.53;4991713;28;20034;-67
2021/10/02 05:44:39;;;;;;;25.00;3.00;;;;;;;6.36;100.00;98346.78;4992050;28;20037;-67
2021/10/02 05:47:04;;;;;;;26.75;3.15;;;;;;;6.35;100.00;98353.19;4986870;28;20038;-67
2021/10/02 05:49:30;;;;;;;24.63;3.15;;;;;;;6.38;100.00;98350.84;4991920;28;20503;-67
2021/10/02 05:51:56;;;;;;;25.85;3.05;;;;;;;6.38;100.00;98345.50;4988468;28;20419;-67
2021/10/02 05:54:21;;;;;;;24.73;3.35;;;;;;;6.34;100.00;98336.34;4971898;28;20476;-68
2021/10/02 05:56:48;;;;;;;23.25;2.95;;;;;;;6.34;100.00;98325.66;4990851;28;20069;-68
2021/10/02 05:59:14;;;;;;;26.73;3.40;;;;;;;6.35;100.00;98337.16;4989777;28;20373;-68
2021/10/02 06:01:39;;;;;;;23.80;3.47;;;;;;;6.39;100.00;98327.56;4991486;28;20049;-68
2021/10/02 06:04:05;;;;;;;21.80;2.97;;;;;;;6.37;100.00;98319.00;4991880;28;20488;-68
2021/10/02 06:06:30;;;;;;;24.60;2.60;;;;;;;6.37;100.00;98311.78;4984475;28;20038;-68
2021/10/02 06:08:56;;;;;;;26.00;3.25;;;;;;;6.38;100.00;98315.25;4990397;28;20595;-68
2021/10/02 06:11:21;;;;;;;23.50;3.55;;;;;;;6.38;100.00;98305.38;4990974;28;20395;-68
2021/10/02 06:13:47;;;;;;;21.88;2.80;;;;;;;6.41;100.00;98298.72;4985629;28;20039;-68
2021/10/02 06:16:15;;;;;;;31.70;3.00;;;;;;;6.44;100.00;98298.22;4985227;28;20084;-67
2021/10/02 06:18:41;;;;;;;19.52;2.45;;;;;;;6.46;100.00;98295.28;4991216;28;20030;-67
2021/10/02 06:21:11;;;;;;;19.50;2.50;;;;;;;6.50;100.00;98291.84;4990187;28;20038;-68
2021/10/02 06:23:38;;;;;;;23.95;3.13;;;;;;;6.49;100.00;98284.09;4986570;28;20086;-68
2021/10/02 06:26:04;;;;;;;23.05;2.70;;;;;;;6.52;100.00;98292.41;4991142;28;20093;-67
2021/10/02 06:28:29;;;;;;;17.38;2.33;;;;;;;6.54;100.00;98276.13;4989749;28;20102;-67
2021/10/02 06:30:55;;;;;;;24.02;2.85;;;;;;;6.61;100.00;98271.38;4987032;28;20038;-67
2021/10/02 06:33:20;;;;;;;25.77;3.22;;;;;;;6.61;100.00;98270.56;4973565;28;20038;-68
2021/10/02 06:35:46;;;;;;;24.58;3.58;;;;;;;6.62;100.00;98256.13;4990540;28;20069;-66
2021/10/02 06:38:11;;;;;;;21.77;3.20;;;;;;;6.63;100.00;98249.72;4989713;28;20514;-67
2021/10/02 06:40:40;;;;;;;23.23;3.35;;;;;;;6.66;100.00;98246.53;4988562;28;20495;-67
2021/10/02 06:43:06;;;;;;;24.90;2.58;;;;;;;6.72;99.66;98248.19;4982602;28;20031;-66
2021/10/02 06:45:32;;;;;;;24.42;3.92;;;;;;;6.70;99.96;98232.41;4977285;28;20030;-66
2021/10/02 06:47:58;;;;;;;15.45;2.97;;;;;;;6.73;99.85;98234.56;4987062;28;20431;-66
2021/10/02 06:50:23;;;;;;;25.48;4.00;;;;;;;6.69;100.00;98238.00;4988268;28;20041;-66
2021/10/02 06:52:49;;;;;;;27.15;3.00;;;;;;;6.67;100.00;98227.56;4990354;28;20035;-66
2021/10/02 06:55:14;;;;;;;22.75;2.47;;;;;;;6.69;100.00;98214.72;4970166;28;20042;-67
2021/10/02 06:57:40;;;;;;;24.40;3.35;;;;;;;6.70;100.00;98204.81;4983746;28;20045;-67
2021/10/02 07:00:06;;;;;;;22.88;2.58;;;;;;;6.72;99.84;98202.69;4993579;28;20081;-67
2021/10/02 07:02:32;;;;;;;20.65;3.35;;;;;;;6.74;99.75;98193.38;4991421;28;20037;-69
2021/10/02 07:04:57;;;;;;;26.83;2.65;;;;;;;6.77;99.48;98196.59;4991696;28;20061;-68
2021/10/02 07:07:23;;;;;;;10.88;2.42;;;;;;;6.83;98.70;98195.56;4978479;28;20046;-68
2021/10/02 07:09:48;;;;;;;21.63;2.97;;;;;;;6.86;98.47;98192.38;4990535;28;20084;-68
2021/10/02 07:12:14;;;;;;;20.98;2.78;;;;;;;6.85;98.63;98185.41;4986137;28;20030;-67
2021/10/02 07:14:40;;;;;;;23.55;3.30;;;;;;;6.85;98.56;98185.41;4989075;28;20125;-67
2021/10/02 07:17:06;;;;;;;17.40;2.90;;;;;;;6.92;98.14;98175.31;4978522;28;20031;-68
2021/10/02 07:19:32;;;;;;;15.40;2.72;;;;;;;6.95;98.32;98184.66;4984497;28;20031;-68
2021/10/02 07:21:57;;;;;;;29.60;3.60;;;;;;;6.96;98.10;98183.59;4986750;28;20534;-69
2021/10/02 07:24:23;;;;;;;24.50;4.75;;;;;;;6.97;98.56;98186.03;4988461;28;20031;-69
2021/10/02 07:26:48;;;;;;;18.60;3.33;;;;;;;7.07;98.26;98174.63;4979620;28;20594;-68
2021/10/02 07:29:14;;;;;;;15.60;3.10;;;;;;;7.13;97.61;98175.44;4987982;28;20086;-68
2021/10/02 07:31:40;;;;;;;22.05;3.65;;;;;;;7.22;97.21;98176.56;4984896;28;20042;-68
2021/10/02 07:34:05;;;;;;;21.17;3.22;;;;;;;7.27;96.65;98176.59;4985649;28;20034;-68
2021/10/02 07:36:31;;;;;;;15.98;3.20;;;;;;;7.36;96.19;98171.56;4982085;28;20503;-68
2021/10/02 07:38:57;;;;;;;30.30;3.72;;;;;;;7.41;95.51;98171.59;4983033;28;20034;-67
2021/10/02 07:41:24;;;;;;;24.33;2.67;;;;;;;7.44;95.46;98160.34;4982920;28;20057;-68
2021/10/02 07:44:02;;;;;;;24.30;2.70;;;;;;;7.47;95.72;98154.47;4981857;28;20031;-69
2021/10/02 07:46:30;;;;;;;23.02;3.05;;;;;;;7.49;95.74;98153.41;4984383;28;20035;-70
2021/10/02 07:48:56;;;;;;;21.70;4.25;;;;;;;7.56;95.27;98138.69;4983173;28;20500;-69
2021/10/02 07:51:24;;;;;;;22.23;2.92;;;;;;;7.61;95.35;98133.34;4627627;28;10000059;-67
2021/10/02 07:53:52;;;;;;;19.98;2.97;;;;;;;7.64;94.90;98118.63;4980232;28;20034;-67
2021/10/02 07:56:18;;;;;;;18.70;2.50;;;;;;;7.68;94.70;98110.84;4980772;28;20034;-67
2021/10/02 07:58:47;;;;;;;32.42;3.03;;;;;;;7.74;94.40;98107.94;4985296;28;20125;-68
2021/10/02 08:01:12;;;;;;;14.20;2.70;;;;;;;7.78;94.62;98097.47;4982516;28;20625;-68
2021/10/02 08:03:38;;;;;;;18.83;2.92;;;;;;;7.81;93.80;98085.44;4983845;28;20042;-68
2021/10/02 08:06:04;;;;;;;13.20;2.42;;;;;;;7.85;93.47;98081.16;4955217;28;20046;-67
2021/10/02 08:08:30;;;;;;;23.35;2.00;;;;;;;7.93;93.30;98075.28;4984473;28;20030;-67
2021/10/02 08:10:55;;;;;;;20.00;2.90;;;;;;;7.91;92.91;98069.38;4984161;28;20686;-68
2021/10/02 08:13:20;;;;;;;14.70;2.28;;;;;;;8.02;93.36;98080.94;4980634;28;20073;-68
2021/10/02 08:15:48;;;;;;;22.00;3.30;;;;;;;8.08;92.35;98074.50;4983538;28;20042;-67
2021/10/02 08:18:17;;;;;;;20.92;2.83;;;;;;;8.19;91.73;98076.13;4981794;28;20544;-67
2021/10/02 08:20:45;;;;;;;27.98;2.22;;;;;;;8.28;92.02;98072.88;4984003;28;20141;-68
2021/10/02 08:23:14;;;;;;;16.85;1.98;;;;;;;8.39;91.42;98060.25;4984371;28;20042;-67
2021/10/02 08:25:44;;;;;;;18.45;2.63;;;;;;;8.47;90.54;98044.44;4981725;28;20045;-69
2021/10/02 08:28:10;;;;;;;20.30;3.22;;;;;;;8.51;90.28;98042.03;4980509;28;20657;-69
2021/10/02 08:30:36;;;;;;;31.25;3.45;;;;;;;8.56;90.86;98028.59;4983707;28;20038;-69
2021/10/02 08:33:01;;;;;;;15.02;2.92;;;;;;;8.62;89.54;98026.72;4987574;28;20034;-69
2021/10/02 08:35:27;;;;;;;16.98;2.08;;;;;;;8.61;89.59;98030.50;4985615;28;20045;-69
2021/10/02 08:37:52;;;;;;;13.55;2.22;;;;;;;8.57;89.71;98024.84;4977021;28;20119;-69
2021/10/02 08:40:20;;;;;;;20.92;2.60;;;;;;;8.55;89.19;98023.53;4987043;28;20475;-69
2021/10/02 08:42:46;;;;;;;15.75;2.40;;;;;;;8.60;89.19;98015.47;4985788;28;20050;-69
2021/10/02 08:45:13;;;;;;;16.73;2.08;;;;;;;8.62;88.72;98019.47;4985911;28;20034;-69
2021/10/02 08:47:42;;;;;;;20.65;2.60;;;;;;;8.65;89.24;98018.13;4986308;28;20037;-69
2021/10/02 08:50:10;;;;;;;11.50;2.10;;;;;;;8.71;88.47;98006.31;4987655;28;20504;-68
2021/10/02 08:52:36;;;;;;;23.88;2.83;;;;;;;8.68;88.75;97998.81;4980262;28;20062;-68
2021/10/02 08:55:04;;;;;;;21.25;3.03;;;;;;;8.60;88.86;98000.16;4985887;28;20042;-67
2021/10/02 08:57:32;;;;;;;16.30;2.85;;;;;;;8.68;88.30;97993.44;4969101;28;20093;-68
2021/10/02 08:59:58;;;;;;;16.90;2.33;;;;;;;8.63;88.62;97988.88;4987150;28;20038;-68
2021/10/02 09:02:25;;;;;;;15.43;2.40;;;;;;;8.68;88.57;97977.34;4987060;28;20085;-68
2021/10/02 09:04:52;;;;;;;13.48;2.67;;;;;;;8.66;88.46;97973.31;4987189;28;20038;-68
2021/10/02 09:07:20;;;;;;;18.90;2.17;;;;;;;8.72;87.98;97973.03;4988451;28;20096;-68
2021/10/02 09:09:47;;;;;;;13.10;2.70;;;;;;;8.77;88.80;97972.19;4979045;28;20050;-68
2021/10/02 09:12:17;;;;;;;17.10;2.97;;;;;;;8.89;87.36;97953.09;4986810;28;20105;-69
2021/10/02 09:14:43;;;;;;;19.27;2.55;;;;;;;8.85;87.75;97943.97;4984551;28;20081;-68
2021/10/02 09:17:08;;;;;;;28.25;2.72;;;;;;;9.02;86.92;97931.00;4982756;28;20395;-68
2021/10/02 09:19:34;;;;;;;17.52;3.03;;;;;;;9.03;86.82;97932.63;4986732;28;20073;-68
2021/10/02 09:22:09;;;;;;;20.45;2.50;;;;;;;9.10;86.66;97920.75;4984064;28;20045;-68
2021/10/02 09:24:37;;;;;;;22.73;3.70;;;;;;;9.16;86.87;97911.59;4983935;28;20042;-68
2021/10/02 09:27:11;;;;;;;13.23;2.67;;;;;;;9.31;85.86;97898.06;4982256;28;20602;-69
2021/10/02 09:29:43;;;;;;;14.13;2.33;;;;;;;9.32;85.43;97898.88;4983548;28;20049;-69
2021/10/02 09:32:13;;;;;;;23.27;3.15;;;;;;;9.31;85.98;97898.06;4983208;28;20103;-69
2021/10/02 09:34:50;;;;;;;19.17;2.85;;;;;;;9.49;85.51;97879.66;4986649;28;20038;-69
2021/10/02 09:37:25;;;;;;;23.10;2.75;;;;;;;9.54;85.15;97876.13;4981084;28;20120;-69
2021/10/02 09:39:55;;;;;;;18.73;3.65;;;;;;;9.64;84.99;97866.09;4986020;28;20108;-69
2021/10/02 09:42:34;;;;;;;13.38;2.38;;;;;;;9.65;85.60;97861.53;4982884;28;20050;-69
2021/10/02 09:45:13;;;;;;;19.20;2.60;;;;;;;9.81;83.91;97846.84;4985124;28;20069;-69
2021/10/02 09:47:40;;;;;;;16.40;2.47;;;;;;;9.81;84.19;97846.84;4982857;28;20068;-69
2021/10/02 09:50:17;;;;;;;15.18;2.53;;;;;;;9.86;84.43;97837.94;4986050;28;20034;-70
2021/10/02 09:52:45;;;;;;;17.27;2.63;;;;;;;9.83;84.40;97835.84;4982734;28;20038;-70
2021/10/02 09:55:22;;;;;;;25.08;2.65;;;;;;;9.87;83.90;97825.28;4985199;28;20034;-69
2021/10/02 09:57:50;;;;;;;18.25;2.55;;;;;;;9.93;84.10;97816.09;4983367;28;20030;-69
2021/10/02 10:00:19;;;;;;;22.30;2.58;;;;;;;9.89;83.60;97818.56;4985560;28;20046;-70
2021/10/02 10:02:45;;;;;;;17.10;3.03;;;;;;;9.71;84.41;97808.50;4986023;28;20392;-69
2021/10/02 10:05:13;;;;;;;16.33;2.72;;;;;;;9.70;84.96;97806.91;4986481;28;20031;-70
2021/10/02 10:07:39;;;;;;;11.40;2.45;;;;;;;9.76;84.32;97801.19;4987425;28;20507;-69
2021/10/02 10:10:05;;;;;;;18.13;2.85;;;;;;;9.70;85.92;97794.28;4977928;28;20492;-69
2021/10/02 10:12:31;;;;;;;21.95;3.00;;;;;;;9.86;85.24;97794.94;4983284;28;20045;-69
2021/10/02 10:14:57;;;;;;;14.05;2.42;;;;;;;9.81;84.95;97790.41;4982609;28;20034;-70
2021/10/02 10:17:23;;;;;;;16.58;2.17;;;;;;;9.72;86.34;97785.91;4981976;28;20045;-70
2021/10/02 10:20:00;;;;;;;16.52;2.25;;;;;;;9.60;87.02;97781.72;4985540;28;20176;-69
2021/10/02 10:22:26;;;;;;;15.75;2.63;;;;;;;9.69;87.68;97759.59;4984736;28;20062;-70
2021/10/02 10:25:05;;;;;;;16.58;2.78;;;;;;;9.56;88.38;97755.72;4983451;28;20437;-69
2021/10/02 10:27:44;;;;;;;15.85;3.10;;;;;;;9.52;89.15;97752.78;4984068;28;20391;-68
2021/10/02 10:30:23;;;;;;;21.98;2.83;;;;;;;9.49;90.62;97743.44;4980346;28;20042;-69
2021/10/02 10:33:03;;;;;;;16.67;2.38;;;;;;;9.38;91.41;97737.34;4984409;28;20109;-69
2021/10/02 10:35:38;;;;;;;25.50;3.40;;;;;;;9.35;92.74;97737.13;4973570;28;20026;-68
2021/10/02 10:38:07;;;;;;;22.13;2.78;;;;;;;9.30;93.00;97742.53;4986170;28;20034;-69
2021/10/02 10:40:34;;;;;;;21.42;3.25;;;;;;;9.24;93.64;97736.41;4980606;28;20034;-68
2021/10/02 10:42:59;;;;;;;22.90;3.13;;;;;;;9.22;94.87;97734.00;4963180;28;20646;-68
2021/10/02 10:45:26;;;;;;;19.00;3.08;;;;;;;9.20;94.78;97733.50;4983312;28;20034;-68
2021/10/02 10:47:52;;;;;;;21.92;3.47;;;;;;;9.11;95.99;97713.72;4982724;28;20092;-68
2021/10/02 10:50:19;;;;;;;25.67;4.47;;;;;;;9.04;97.70;97713.25;4982234;28;20035;-67
2021/10/02 10:52:46;;;;;;;19.92;2.67;;;;;;;8.99;97.67;97699.84;4977988;28;20733;-67
2021/10/02 10:55:16;;;;;;;24.02;3.00;;;;;;;8.95;97.61;97696.13;4967140;28;20146;-68
2021/10/02 10:57:56;;;;;;;21.08;2.95;;;;;;;8.90;97.75;97699.66;4984031;28;20050;-68
2021/10/02 11:00:42;;;;;;;16.60;2.60;;;;;;;8.86;99.17;97688.69;4979829;28;20543;-68
2021/10/02 11:03:10;;;;;;;15.48;2.92;;;;;;;8.87;99.06;97681.44;4973172;28;20073;-67
2021/10/02 11:05:35;;;;;;;19.90;2.88;;;;;;;8.89;99.73;97672.03;4976639;28;20034;-67
2021/10/02 11:08:09;;;;;;;22.00;2.90;;;;;;;8.83;99.66;97670.44;4985886;28;20558;-67
2021/10/02 11:10:44;;;;;;;17.88;2.78;;;;;;;8.84;100.00;97661.34;4977118;28;20085;-68
2021/10/02 11:13:19;;;;;;;20.52;3.10;;;;;;;8.87;100.00;97654.56;4980836;28;20045;-68
2021/10/02 11:15:56;;;;;;;26.00;4.05;;;;;;;8.86;100.00;97639.56;5066992;27;20384;-71
2021/10/02 11:18:43;;;;;;;17.30;2.75;;;;;;;8.83;100.00;97632.84;5065707;28;20591;-70
2021/10/02 11:21:11;;;;;;;20.27;3.05;;;;;;;8.84;100.00;97629.13;5060967;28;20144;-70
2021/10/02 11:23:40;;;;;;;17.27;3.08;;;;;;;8.82;100.00;97625.09;5066456;28;20461;-70
2021/10/02 11:26:22;;;;;;;24.55;3.58;;;;;;;8.81;100.00;97610.06;5062547;28;20037;-74
2021/10/02 11:31:32;;;;;;;24.80;3.20;;;;;;;8.84;100.00;97598.78;5465457;23;20330;-69
2021/10/02 11:33:59;;;;;;;20.40;3.17;;;;;;;8.78;100.00;97592.63;5004629;28;20045;-69
2021/10/02 11:36:27;;;;;;;30.65;3.90;;;;;;;8.81;100.00;97583.25;5008669;28;20084;-70
2021/10/02 11:39:11;;;;;;;33.55;4.20;;;;;;;8.87;100.00;97576.72;5014050;28;20038;-70
2021/10/02 11:41:49;;;;;;;34.30;3.90;;;;;;;8.82;100.00;97564.16;5015417;28;20119;-70
2021/10/02 11:44:36;;;;;;;23.48;3.65;;;;;;;8.90;100.00;97554.69;5012926;28;20792;-71
2021/10/02 11:47:23;;;;;;;25.80;3.80;;;;;;;8.87;100.00;97553.38;5012499;28;20092;-70
2021/10/02 11:50:07;;;;;;;17.33;3.13;;;;;;;8.90;100.00;97541.25;4319662;28;10000815;-70
2021/10/02 11:52:41;;;;;;;27.38;4.00;;;;;;;9.87;100.00;97527.66;5015287;28;20529;-70
2021/10/02 11:55:32;;;;;;;27.00;3.55;;;;;;;8.99;100.00;97536.88;5004172;28;20081;-70
2021/10/02 11:58:10;;;;;;;20.42;3.47;;;;;;;8.88;100.00;97532.69;5017407;28;20078;-70
2021/10/02 12:01:00;;;;;;;17.83;3.83;;;;;;;8.90;100.00;97511.72;5022840;28;20108;-69
2021/10/02 12:03:29;;;;;;;31.27;4.20;;;;;;;8.91;100.00;97498.03;5021099;28;20033;-72
2021/10/02 12:06:00;;;;;;;28.45;4.53;;;;;;;8.92;100.00;97498.81;5016053;28;20057;-72
2021/10/02 12:08:26;;;;;;;22.00;4.45;;;;;;;8.98;100.00;97489.63;5001830;28;20083;-71
2021/10/02 12:22:08;;;;;;;21.35;4.10;;;;;;;9.01;100.00;97431.88;5352441;23;20082;-75
2021/10/02 12:24:36;;;;;;;22.42;5.20;;;;;;;9.00;100.00;97406.13;4919465;29;20047;-77
2021/10/02 12:27:10;;;;;;;29.17;5.35;;;;;;;9.00;100.00;97398.84;4913414;29;20032;-74
2021/10/02 13:17:08;;;;;;;21.77;4.68;;;;;;;9.17;100.00;97255.19;5048667;28;20415;-76
2021/10/02 13:19:34;;;;;;;22.00;4.90;;;;;;;9.24;100.00;97250.25;5043971;28;20068;-78
2021/10/02 13:22:19;;;;;;;30.63;6.63;;;;;;;9.29;100.00;97244.78;5037761;28;20038;-78
2021/10/02 13:25:08;;;;;;;32.67;5.38;;;;;;;9.36;100.00;97229.06;5033700;28;20063;-74
2021/10/02 13:27:45;;;;;;;23.38;4.80;;;;;;;9.46;100.00;97219.25;5038946;28;20038;-82
2021/10/02 13:30:20;;;;;;;22.75;5.40;;;;;;;9.48;100.00;97214.38;5038488;28;20041;-73